sensor_id;sensor_type;location;lat;lon;timestamp;P1;durP1;ratioP1;P2;durP2;ratioP2
11887;SDS011;6003;42.756;23.130;2023-02-22T00:01:40;4.77;;;2.80;;
11887;SDS011;6003;42.756;23.130;2023-02-22T00:04:16;3.53;;;2.80;;
11887;SDS011;6003;42.756;23.130;2023-02-22T00:06:45;2.67;;;2.47;;
11887;SDS011;6003;42.756;23.130;2023-02-22T00:09:12;4.37;;;2.17;;
11887;SDS011;6003;42.756;23.130;2023-02-22T00:11:44;3.50;;;2.73;;
11887;SDS011;6003;42.756;23.130;2023-02-22T00:14:12;6.27;;;2.73;;
11887;SDS011;6003;42.756;23.130;2023-02-22T00:16:39;5.63;;;2.33;;
11887;SDS011;6003;42.756;23.130;2023-02-22T00:19:05;2.70;;;2.43;;
11887;SDS011;6003;42.756;23.130;2023-02-22T00:21:34;7.80;;;3.40;;
11887;SDS011;6003;42.756;23.130;2023-02-22T00:24:01;5.33;;;3.03;;
11887;SDS011;6003;42.756;23.130;2023-02-22T00:26:41;3.47;;;2.93;;
11887;SDS011;6003;42.756;23.130;2023-02-22T00:29:11;7.23;;;3.17;;
11887;SDS011;6003;42.756;23.130;2023-02-22T00:31:37;4.43;;;2.60;;
11887;SDS011;6003;42.756;23.130;2023-02-22T00:34:04;7.70;;;3.60;;
11887;SDS011;6003;42.756;23.130;2023-02-22T00:36:31;5.40;;;2.10;;
11887;SDS011;6003;42.756;23.130;2023-02-22T00:38:59;4.23;;;2.70;;
11887;SDS011;6003;42.756;23.130;2023-02-22T00:41:26;4.17;;;2.17;;
11887;SDS011;6003;42.756;23.130;2023-02-22T00:43:53;5.03;;;2.40;;
11887;SDS011;6003;42.756;23.130;2023-02-22T00:46:19;5.67;;;2.60;;
11887;SDS011;6003;42.756;23.130;2023-02-22T00:48:46;3.63;;;2.43;;
11887;SDS011;6003;42.756;23.130;2023-02-22T00:51:13;2.60;;;2.07;;
11887;SDS011;6003;42.756;23.130;2023-02-22T00:53:40;4.90;;;2.33;;
11887;SDS011;6003;42.756;23.130;2023-02-22T00:56:08;3.57;;;2.10;;
11887;SDS011;6003;42.756;23.130;2023-02-22T00:58:35;4.43;;;2.93;;
11887;SDS011;6003;42.756;23.130;2023-02-22T01:01:02;4.40;;;2.73;;
11887;SDS011;6003;42.756;23.130;2023-02-22T01:03:29;5.60;;;2.20;;
11887;SDS011;6003;42.756;23.130;2023-02-22T01:05:56;2.43;;;2.23;;
11887;SDS011;6003;42.756;23.130;2023-02-22T01:08:23;4.63;;;2.30;;
11887;SDS011;6003;42.756;23.130;2023-02-22T01:10:50;5.70;;;2.30;;
11887;SDS011;6003;42.756;23.130;2023-02-22T01:13:19;5.27;;;2.67;;
11887;SDS011;6003;42.756;23.130;2023-02-22T01:15:47;4.97;;;2.73;;
11887;SDS011;6003;42.756;23.130;2023-02-22T01:18:14;2.27;;;2.07;;
11887;SDS011;6003;42.756;23.130;2023-02-22T01:20:41;2.73;;;1.97;;
11887;SDS011;6003;42.756;23.130;2023-02-22T01:23:12;2.10;;;1.90;;
11887;SDS011;6003;42.756;23.130;2023-02-22T01:25:41;1.70;;;1.60;;
11887;SDS011;6003;42.756;23.130;2023-02-22T01:28:08;1.40;;;1.30;;
11887;SDS011;6003;42.756;23.130;2023-02-22T01:30:39;1.27;;;1.27;;
11887;SDS011;6003;42.756;23.130;2023-02-22T01:33:06;1.70;;;1.60;;
11887;SDS011;6003;42.756;23.130;2023-02-22T01:35:34;2.27;;;1.20;;
11887;SDS011;6003;42.756;23.130;2023-02-22T01:38:02;1.30;;;1.20;;
11887;SDS011;6003;42.756;23.130;2023-02-22T01:40:30;1.00;;;1.00;;
11887;SDS011;6003;42.756;23.130;2023-02-22T01:42:59;1.40;;;1.30;;
11887;SDS011;6003;42.756;23.130;2023-02-22T01:48:19;1.40;;;1.30;;
11887;SDS011;6003;42.756;23.130;2023-02-22T01:50:51;2.43;;;1.90;;
11887;SDS011;6003;42.756;23.130;2023-02-22T01:53:21;1.50;;;1.40;;
11887;SDS011;6003;42.756;23.130;2023-02-22T01:55:51;1.60;;;1.50;;
11887;SDS011;6003;42.756;23.130;2023-02-22T01:58:21;1.67;;;1.57;;
11887;SDS011;6003;42.756;23.130;2023-02-22T02:00:51;1.40;;;1.30;;
11887;SDS011;6003;42.756;23.130;2023-02-22T02:03:18;1.87;;;1.53;;
11887;SDS011;6003;42.756;23.130;2023-02-22T02:05:48;1.50;;;1.40;;
11887;SDS011;6003;42.756;23.130;2023-02-22T02:08:25;2.37;;;1.90;;
11887;SDS011;6003;42.756;23.130;2023-02-22T02:10:57;1.60;;;1.50;;
11887;SDS011;6003;42.756;23.130;2023-02-22T02:13:26;1.27;;;1.20;;
11887;SDS011;6003;42.756;23.130;2023-02-22T02:15:55;2.43;;;1.47;;
11887;SDS011;6003;42.756;23.130;2023-02-22T02:18:23;3.37;;;1.70;;
11887;SDS011;6003;42.756;23.130;2023-02-22T02:21:12;1.43;;;1.33;;
11887;SDS011;6003;42.756;23.130;2023-02-22T02:27:33;4.73;;;1.50;;
11887;SDS011;6003;42.756;23.130;2023-02-22T02:30:25;2.03;;;1.63;;
11887;SDS011;6003;42.756;23.130;2023-02-22T02:33:15;2.67;;;1.70;;
11887;SDS011;6003;42.756;23.130;2023-02-22T02:35:50;1.80;;;1.70;;
11887;SDS011;6003;42.756;23.130;2023-02-22T02:38:29;3.10;;;1.63;;
11887;SDS011;6003;42.756;23.130;2023-02-22T02:41:02;1.20;;;1.20;;
11887;SDS011;6003;42.756;23.130;2023-02-22T02:43:36;2.10;;;1.63;;
11887;SDS011;6003;42.756;23.130;2023-02-22T02:46:08;1.73;;;1.40;;
11887;SDS011;6003;42.756;23.130;2023-02-22T02:48:40;1.37;;;1.30;;
11887;SDS011;6003;42.756;23.130;2023-02-22T02:51:11;1.97;;;1.33;;
11887;SDS011;6003;42.756;23.130;2023-02-22T02:53:41;2.60;;;1.53;;
11887;SDS011;6003;42.756;23.130;2023-02-22T02:56:11;1.97;;;1.37;;
11887;SDS011;6003;42.756;23.130;2023-02-22T02:58:43;1.70;;;1.60;;
11887;SDS011;6003;42.756;23.130;2023-02-22T03:01:13;1.40;;;1.30;;
11887;SDS011;6003;42.756;23.130;2023-02-22T03:03:59;5.63;;;2.27;;
11887;SDS011;6003;42.756;23.130;2023-02-22T03:09:37;1.40;;;1.30;;
11887;SDS011;6003;42.756;23.130;2023-02-22T03:12:16;2.50;;;1.77;;
11887;SDS011;6003;42.756;23.130;2023-02-22T03:14:55;1.50;;;1.40;;
11887;SDS011;6003;42.756;23.130;2023-02-22T03:17:36;1.80;;;1.70;;
11887;SDS011;6003;42.756;23.130;2023-02-22T03:20:16;2.93;;;1.90;;
11887;SDS011;6003;42.756;23.130;2023-02-22T03:23:05;2.20;;;1.90;;
11887;SDS011;6003;42.756;23.130;2023-02-22T03:25:37;2.83;;;1.60;;
11887;SDS011;6003;42.756;23.130;2023-02-22T03:28:07;3.00;;;1.80;;
11887;SDS011;6003;42.756;23.130;2023-02-22T03:30:38;1.63;;;1.53;;
11887;SDS011;6003;42.756;23.130;2023-02-22T03:33:12;1.20;;;1.20;;
11887;SDS011;6003;42.756;23.130;2023-02-22T03:35:47;1.60;;;1.50;;
11887;SDS011;6003;42.756;23.130;2023-02-22T03:38:21;1.83;;;1.53;;
11887;SDS011;6003;42.756;23.130;2023-02-22T03:40:51;1.27;;;1.27;;
11887;SDS011;6003;42.756;23.130;2023-02-22T03:43:23;3.37;;;1.70;;
11887;SDS011;6003;42.756;23.130;2023-02-22T03:45:55;1.70;;;1.60;;
11887;SDS011;6003;42.756;23.130;2023-02-22T03:48:24;1.63;;;1.53;;
11887;SDS011;6003;42.756;23.130;2023-02-22T03:50:58;2.90;;;2.20;;
11887;SDS011;6003;42.756;23.130;2023-02-22T03:53:28;3.13;;;2.27;;
11887;SDS011;6003;42.756;23.130;2023-02-22T03:55:57;5.63;;;3.40;;
11887;SDS011;6003;42.756;23.130;2023-02-22T03:58:26;2.23;;;1.93;;
11887;SDS011;6003;42.756;23.130;2023-02-22T04:00:57;2.10;;;1.90;;
11887;SDS011;6003;42.756;23.130;2023-02-22T04:03:24;1.77;;;1.67;;
11887;SDS011;6003;42.756;23.130;2023-02-22T04:05:51;2.17;;;1.60;;
11887;SDS011;6003;42.756;23.130;2023-02-22T04:08:20;3.63;;;1.47;;
11887;SDS011;6003;42.756;23.130;2023-02-22T04:10:46;2.23;;;1.80;;
11887;SDS011;6003;42.756;23.130;2023-02-22T04:13:13;1.37;;;1.30;;
11887;SDS011;6003;42.756;23.130;2023-02-22T04:15:41;1.77;;;1.67;;
11887;SDS011;6003;42.756;23.130;2023-02-22T04:18:07;1.60;;;1.50;;
11887;SDS011;6003;42.756;23.130;2023-02-22T04:20:34;2.00;;;1.73;;
11887;SDS011;6003;42.756;23.130;2023-02-22T04:23:01;1.50;;;1.40;;
11887;SDS011;6003;42.756;23.130;2023-02-22T04:25:29;1.83;;;1.73;;
11887;SDS011;6003;42.756;23.130;2023-02-22T04:27:57;1.80;;;1.60;;
11887;SDS011;6003;42.756;23.130;2023-02-22T04:30:23;1.87;;;1.60;;
11887;SDS011;6003;42.756;23.130;2023-02-22T04:32:54;2.40;;;1.93;;
11887;SDS011;6003;42.756;23.130;2023-02-22T04:35:21;1.60;;;1.50;;
11887;SDS011;6003;42.756;23.130;2023-02-22T04:37:48;1.30;;;1.30;;
11887;SDS011;6003;42.756;23.130;2023-02-22T04:40:15;1.73;;;1.60;;
11887;SDS011;6003;42.756;23.130;2023-02-22T04:42:44;3.20;;;1.53;;
11887;SDS011;6003;42.756;23.130;2023-02-22T04:45:11;1.53;;;1.40;;
11887;SDS011;6003;42.756;23.130;2023-02-22T04:47:38;1.60;;;1.50;;
11887;SDS011;6003;42.756;23.130;2023-02-22T04:50:06;3.63;;;1.60;;
11887;SDS011;6003;42.756;23.130;2023-02-22T04:52:34;6.37;;;2.70;;
11887;SDS011;6003;42.756;23.130;2023-02-22T04:55:01;1.60;;;1.50;;
11887;SDS011;6003;42.756;23.130;2023-02-22T04:57:28;1.40;;;1.30;;
11887;SDS011;6003;42.756;23.130;2023-02-22T04:59:57;1.80;;;1.70;;
11887;SDS011;6003;42.756;23.130;2023-02-22T05:02:24;3.57;;;1.40;;
11887;SDS011;6003;42.756;23.130;2023-02-22T05:04:51;1.40;;;1.30;;
11887;SDS011;6003;42.756;23.130;2023-02-22T05:07:18;2.03;;;1.63;;
11887;SDS011;6003;42.756;23.130;2023-02-22T05:09:45;4.70;;;1.83;;
11887;SDS011;6003;42.756;23.130;2023-02-22T05:12:11;1.53;;;1.43;;
11887;SDS011;6003;42.756;23.130;2023-02-22T05:14:39;1.43;;;1.30;;
11887;SDS011;6003;42.756;23.130;2023-02-22T05:17:08;2.03;;;1.80;;
11887;SDS011;6003;42.756;23.130;2023-02-22T05:19:35;4.17;;;3.23;;
11887;SDS011;6003;42.756;23.130;2023-02-22T05:22:02;3.33;;;2.17;;
11887;SDS011;6003;42.756;23.130;2023-02-22T05:24:29;43.17;;;15.30;;
11887;SDS011;6003;42.756;23.130;2023-02-22T05:26:56;41.03;;;16.33;;
11887;SDS011;6003;42.756;23.130;2023-02-22T05:29:23;16.20;;;7.60;;
11887;SDS011;6003;42.756;23.130;2023-02-22T05:31:50;9.33;;;4.10;;
11887;SDS011;6003;42.756;23.130;2023-02-22T05:34:19;14.00;;;5.37;;
11887;SDS011;6003;42.756;23.130;2023-02-22T05:36:46;7.87;;;3.50;;
11887;SDS011;6003;42.756;23.130;2023-02-22T05:39:12;5.80;;;3.80;;
11887;SDS011;6003;42.756;23.130;2023-02-22T05:41:39;6.47;;;3.20;;
11887;SDS011;6003;42.756;23.130;2023-02-22T05:44:06;3.87;;;3.10;;
11887;SDS011;6003;42.756;23.130;2023-02-22T05:46:33;6.03;;;3.53;;
11887;SDS011;6003;42.756;23.130;2023-02-22T05:49:01;3.90;;;2.97;;
11887;SDS011;6003;42.756;23.130;2023-02-22T05:51:29;3.43;;;2.53;;
11887;SDS011;6003;42.756;23.130;2023-02-22T05:53:56;5.10;;;3.40;;
11887;SDS011;6003;42.756;23.130;2023-02-22T05:56:23;2.73;;;2.53;;
11887;SDS011;6003;42.756;23.130;2023-02-22T05:58:51;4.57;;;2.23;;
11887;SDS011;6003;42.756;23.130;2023-02-22T06:01:18;3.03;;;2.37;;
11887;SDS011;6003;42.756;23.130;2023-02-22T06:03:46;4.33;;;2.30;;
11887;SDS011;6003;42.756;23.130;2023-02-22T06:06:15;8.77;;;2.50;;
11887;SDS011;6003;42.756;23.130;2023-02-22T06:08:45;2.10;;;1.97;;
11887;SDS011;6003;42.756;23.130;2023-02-22T06:11:12;5.40;;;2.33;;
11887;SDS011;6003;42.756;23.130;2023-02-22T06:13:39;6.53;;;3.03;;
11887;SDS011;6003;42.756;23.130;2023-02-22T06:16:06;2.77;;;2.17;;
11887;SDS011;6003;42.756;23.130;2023-02-22T06:18:33;4.13;;;2.60;;
11887;SDS011;6003;42.756;23.130;2023-02-22T06:21:00;3.73;;;2.60;;
11887;SDS011;6003;42.756;23.130;2023-02-22T06:23:28;4.37;;;2.27;;
11887;SDS011;6003;42.756;23.130;2023-02-22T06:25:56;2.60;;;2.40;;
11887;SDS011;6003;42.756;23.130;2023-02-22T06:28:23;2.80;;;2.23;;
11887;SDS011;6003;42.756;23.130;2023-02-22T06:30:50;3.73;;;2.33;;
11887;SDS011;6003;42.756;23.130;2023-02-22T06:33:17;3.73;;;2.67;;
11887;SDS011;6003;42.756;23.130;2023-02-22T06:35:43;5.13;;;2.70;;
11887;SDS011;6003;42.756;23.130;2023-02-22T06:38:10;3.20;;;2.47;;
11887;SDS011;6003;42.756;23.130;2023-02-22T06:40:38;3.03;;;2.67;;
11887;SDS011;6003;42.756;23.130;2023-02-22T06:43:06;2.97;;;2.67;;
11887;SDS011;6003;42.756;23.130;2023-02-22T06:45:32;4.67;;;2.43;;
11887;SDS011;6003;42.756;23.130;2023-02-22T06:47:59;2.70;;;2.43;;
11887;SDS011;6003;42.756;23.130;2023-02-22T06:50:27;7.73;;;3.80;;
11887;SDS011;6003;42.756;23.130;2023-02-22T06:52:56;6.90;;;3.27;;
11887;SDS011;6003;42.756;23.130;2023-02-22T06:55:24;6.63;;;2.53;;
11887;SDS011;6003;42.756;23.130;2023-02-22T06:57:51;2.50;;;2.30;;
11887;SDS011;6003;42.756;23.130;2023-02-22T07:00:21;5.07;;;2.83;;
11887;SDS011;6003;42.756;23.130;2023-02-22T07:02:49;2.70;;;2.50;;
11887;SDS011;6003;42.756;23.130;2023-02-22T07:05:17;4.00;;;2.53;;
11887;SDS011;6003;42.756;23.130;2023-02-22T07:07:45;3.13;;;2.43;;
11887;SDS011;6003;42.756;23.130;2023-02-22T07:10:17;5.33;;;2.90;;
11887;SDS011;6003;42.756;23.130;2023-02-22T07:12:47;4.90;;;2.80;;
11887;SDS011;6003;42.756;23.130;2023-02-22T07:15:16;3.93;;;3.13;;
11887;SDS011;6003;42.756;23.130;2023-02-22T07:17:46;8.27;;;2.93;;
11887;SDS011;6003;42.756;23.130;2023-02-22T07:20:14;3.50;;;3.13;;
11887;SDS011;6003;42.756;23.130;2023-02-22T07:25:55;6.03;;;3.77;;
11887;SDS011;6003;42.756;23.130;2023-02-22T07:28:25;6.53;;;3.80;;
11887;SDS011;6003;42.756;23.130;2023-02-22T07:30:51;5.13;;;4.27;;
11887;SDS011;6003;42.756;23.130;2023-02-22T07:33:19;7.20;;;4.77;;
11887;SDS011;6003;42.756;23.130;2023-02-22T07:35:47;4.80;;;3.43;;
11887;SDS011;6003;42.756;23.130;2023-02-22T07:38:15;6.10;;;3.27;;
11887;SDS011;6003;42.756;23.130;2023-02-22T07:40:43;8.90;;;5.13;;
11887;SDS011;6003;42.756;23.130;2023-02-22T07:43:12;4.20;;;3.47;;
11887;SDS011;6003;42.756;23.130;2023-02-22T07:45:41;5.43;;;3.80;;
11887;SDS011;6003;42.756;23.130;2023-02-22T07:48:08;10.90;;;6.60;;
11887;SDS011;6003;42.756;23.130;2023-02-22T07:50:38;6.23;;;3.80;;
11887;SDS011;6003;42.756;23.130;2023-02-22T07:53:06;6.17;;;3.67;;
11887;SDS011;6003;42.756;23.130;2023-02-22T07:55:35;7.77;;;3.43;;
11887;SDS011;6003;42.756;23.130;2023-02-22T07:58:03;4.73;;;3.00;;
11887;SDS011;6003;42.756;23.130;2023-02-22T08:00:31;4.67;;;2.70;;
11887;SDS011;6003;42.756;23.130;2023-02-22T08:03:00;4.93;;;3.37;;
11887;SDS011;6003;42.756;23.130;2023-02-22T08:05:28;3.43;;;2.93;;
11887;SDS011;6003;42.756;23.130;2023-02-22T08:07:58;5.93;;;3.37;;
11887;SDS011;6003;42.756;23.130;2023-02-22T08:10:25;6.43;;;3.07;;
11887;SDS011;6003;42.756;23.130;2023-02-22T08:12:52;8.73;;;3.47;;
11887;SDS011;6003;42.756;23.130;2023-02-22T08:15:21;4.13;;;3.30;;
11887;SDS011;6003;42.756;23.130;2023-02-22T08:17:49;6.10;;;3.50;;
11887;SDS011;6003;42.756;23.130;2023-02-22T08:20:17;5.37;;;3.80;;
11887;SDS011;6003;42.756;23.130;2023-02-22T08:22:44;6.57;;;3.27;;
11887;SDS011;6003;42.756;23.130;2023-02-22T08:25:13;8.17;;;3.53;;
11887;SDS011;6003;42.756;23.130;2023-02-22T08:27:41;8.37;;;3.23;;
11887;SDS011;6003;42.756;23.130;2023-02-22T08:30:09;9.40;;;3.13;;
11887;SDS011;6003;42.756;23.130;2023-02-22T08:32:39;4.97;;;3.30;;
11887;SDS011;6003;42.756;23.130;2023-02-22T08:35:06;7.90;;;4.67;;
11887;SDS011;6003;42.756;23.130;2023-02-22T08:37:33;5.00;;;3.40;;
11887;SDS011;6003;42.756;23.130;2023-02-22T08:39:59;5.27;;;3.70;;
11887;SDS011;6003;42.756;23.130;2023-02-22T08:42:28;10.73;;;4.53;;
11887;SDS011;6003;42.756;23.130;2023-02-22T08:44:54;6.10;;;3.07;;
11887;SDS011;6003;42.756;23.130;2023-02-22T08:47:21;4.40;;;2.67;;
11887;SDS011;6003;42.756;23.130;2023-02-22T08:49:48;3.47;;;2.50;;
11887;SDS011;6003;42.756;23.130;2023-02-22T08:52:15;2.50;;;1.90;;
11887;SDS011;6003;42.756;23.130;2023-02-22T08:54:43;2.57;;;2.03;;
11887;SDS011;6003;42.756;23.130;2023-02-22T08:57:10;3.20;;;2.40;;
11887;SDS011;6003;42.756;23.130;2023-02-22T08:59:38;2.13;;;1.93;;
11887;SDS011;6003;42.756;23.130;2023-02-22T09:02:09;4.10;;;2.50;;
11887;SDS011;6003;42.756;23.130;2023-02-22T09:04:40;2.13;;;1.70;;
11887;SDS011;6003;42.756;23.130;2023-02-22T09:07:08;2.17;;;2.00;;
11887;SDS011;6003;42.756;23.130;2023-02-22T09:09:35;2.37;;;2.10;;
11887;SDS011;6003;42.756;23.130;2023-02-22T09:12:02;4.37;;;2.20;;
11887;SDS011;6003;42.756;23.130;2023-02-22T09:14:29;3.00;;;2.40;;
11887;SDS011;6003;42.756;23.130;2023-02-22T09:16:57;2.97;;;2.17;;
11887;SDS011;6003;42.756;23.130;2023-02-22T09:19:24;2.70;;;2.30;;
11887;SDS011;6003;42.756;23.130;2023-02-22T09:21:51;3.97;;;2.40;;
11887;SDS011;6003;42.756;23.130;2023-02-22T09:24:19;2.57;;;2.37;;
11887;SDS011;6003;42.756;23.130;2023-02-22T09:26:45;2.27;;;2.07;;
11887;SDS011;6003;42.756;23.130;2023-02-22T09:29:17;5.20;;;2.40;;
11887;SDS011;6003;42.756;23.130;2023-02-22T09:31:47;2.73;;;2.40;;
11887;SDS011;6003;42.756;23.130;2023-02-22T09:34:17;3.40;;;2.27;;
11887;SDS011;6003;42.756;23.130;2023-02-22T09:36:47;3.17;;;1.97;;
11887;SDS011;6003;42.756;23.130;2023-02-22T09:39:15;3.63;;;2.37;;
11887;SDS011;6003;42.756;23.130;2023-02-22T09:41:45;2.17;;;2.00;;
11887;SDS011;6003;42.756;23.130;2023-02-22T09:44:21;3.43;;;1.80;;
11887;SDS011;6003;42.756;23.130;2023-02-22T09:46:52;2.87;;;2.10;;
11887;SDS011;6003;42.756;23.130;2023-02-22T09:49:22;3.53;;;2.10;;
11887;SDS011;6003;42.756;23.130;2023-02-22T09:51:54;2.63;;;2.43;;
11887;SDS011;6003;42.756;23.130;2023-02-22T09:54:27;2.67;;;2.13;;
11887;SDS011;6003;42.756;23.130;2023-02-22T09:56:59;2.53;;;2.33;;
11887;SDS011;6003;42.756;23.130;2023-02-22T09:59:30;2.77;;;2.53;;
11887;SDS011;6003;42.756;23.130;2023-02-22T10:02:04;3.57;;;2.33;;
11887;SDS011;6003;42.756;23.130;2023-02-22T10:04:45;4.57;;;2.37;;
11887;SDS011;6003;42.756;23.130;2023-02-22T10:07:19;1.80;;;1.70;;
11887;SDS011;6003;42.756;23.130;2023-02-22T10:09:50;2.70;;;2.50;;
11887;SDS011;6003;42.756;23.130;2023-02-22T10:12:25;3.17;;;2.20;;
11887;SDS011;6003;42.756;23.130;2023-02-22T10:15:09;1.57;;;1.47;;
11887;SDS011;6003;42.756;23.130;2023-02-22T10:17:53;3.00;;;2.10;;
11887;SDS011;6003;42.756;23.130;2023-02-22T10:20:41;1.80;;;1.67;;
11887;SDS011;6003;42.756;23.130;2023-02-22T10:23:16;2.73;;;2.07;;
11887;SDS011;6003;42.756;23.130;2023-02-22T10:25:49;2.20;;;2.00;;
11887;SDS011;6003;42.756;23.130;2023-02-22T10:28:22;3.30;;;2.20;;
11887;SDS011;6003;42.756;23.130;2023-02-22T10:30:55;2.43;;;1.67;;
11887;SDS011;6003;42.756;23.130;2023-02-22T10:33:28;3.47;;;1.60;;
11887;SDS011;6003;42.756;23.130;2023-02-22T10:35:58;1.90;;;1.60;;
11887;SDS011;6003;42.756;23.130;2023-02-22T10:38:26;1.70;;;1.60;;
11887;SDS011;6003;42.756;23.130;2023-02-22T10:40:55;2.00;;;1.80;;
11887;SDS011;6003;42.756;23.130;2023-02-22T10:43:26;1.90;;;1.80;;
11887;SDS011;6003;42.756;23.130;2023-02-22T10:45:54;1.93;;;1.50;;
11887;SDS011;6003;42.756;23.130;2023-02-22T10:48:24;1.80;;;1.70;;
11887;SDS011;6003;42.756;23.130;2023-02-22T10:50:56;1.57;;;1.47;;
11887;SDS011;6003;42.756;23.130;2023-02-22T10:53:27;1.50;;;1.40;;
11887;SDS011;6003;42.756;23.130;2023-02-22T10:56:05;2.73;;;1.87;;
11887;SDS011;6003;42.756;23.130;2023-02-22T10:58:44;1.97;;;1.63;;
11887;SDS011;6003;42.756;23.130;2023-02-22T11:01:18;1.70;;;1.60;;
11887;SDS011;6003;42.756;23.130;2023-02-22T11:04:05;2.03;;;1.70;;
11887;SDS011;6003;42.756;23.130;2023-02-22T11:06:38;1.60;;;1.50;;
11887;SDS011;6003;42.756;23.130;2023-02-22T11:09:09;1.50;;;1.40;;
11887;SDS011;6003;42.756;23.130;2023-02-22T11:11:39;1.33;;;1.23;;
11887;SDS011;6003;42.756;23.130;2023-02-22T11:14:07;2.17;;;1.57;;
11887;SDS011;6003;42.756;23.130;2023-02-22T11:16:36;1.70;;;1.60;;
11887;SDS011;6003;42.756;23.130;2023-02-22T11:19:09;2.00;;;1.60;;
11887;SDS011;6003;42.756;23.130;2023-02-22T11:21:44;1.83;;;1.73;;
11887;SDS011;6003;42.756;23.130;2023-02-22T11:24:11;1.63;;;1.53;;
11887;SDS011;6003;42.756;23.130;2023-02-22T11:26:41;1.50;;;1.40;;
11887;SDS011;6003;42.756;23.130;2023-02-22T11:29:10;1.87;;;1.57;;
11887;SDS011;6003;42.756;23.130;2023-02-22T11:31:44;1.90;;;1.80;;
11887;SDS011;6003;42.756;23.130;2023-02-22T11:34:27;1.43;;;1.33;;
11887;SDS011;6003;42.756;23.130;2023-02-22T11:37:13;1.93;;;1.70;;
11887;SDS011;6003;42.756;23.130;2023-02-22T11:39:42;1.70;;;1.60;;
11887;SDS011;6003;42.756;23.130;2023-02-22T11:42:16;2.17;;;1.97;;
11887;SDS011;6003;42.756;23.130;2023-02-22T11:44:47;1.50;;;1.40;;
11887;SDS011;6003;42.756;23.130;2023-02-22T11:47:14;1.70;;;1.60;;
11887;SDS011;6003;42.756;23.130;2023-02-22T11:49:42;1.80;;;1.47;;
11887;SDS011;6003;42.756;23.130;2023-02-22T11:52:20;1.70;;;1.60;;
11887;SDS011;6003;42.756;23.130;2023-02-22T11:55:12;1.60;;;1.50;;
11887;SDS011;6003;42.756;23.130;2023-02-22T11:57:49;1.70;;;1.60;;
11887;SDS011;6003;42.756;23.130;2023-02-22T12:00:27;1.70;;;1.60;;
11887;SDS011;6003;42.756;23.130;2023-02-22T12:03:08;1.60;;;1.50;;
11887;SDS011;6003;42.756;23.130;2023-02-22T12:05:54;1.80;;;1.70;;
11887;SDS011;6003;42.756;23.130;2023-02-22T12:08:38;1.90;;;1.80;;
11887;SDS011;6003;42.756;23.130;2023-02-22T12:11:12;2.10;;;1.90;;
11887;SDS011;6003;42.756;23.130;2023-02-22T12:13:50;2.20;;;2.00;;
11887;SDS011;6003;42.756;23.130;2023-02-22T12:16:27;2.67;;;2.30;;
11887;SDS011;6003;42.756;23.130;2023-02-22T12:19:09;1.90;;;1.80;;
11887;SDS011;6003;42.756;23.130;2023-02-22T12:21:42;3.03;;;2.20;;
11887;SDS011;6003;42.756;23.130;2023-02-22T12:24:15;1.87;;;1.60;;
11887;SDS011;6003;42.756;23.130;2023-02-22T12:26:47;1.83;;;1.63;;
11887;SDS011;6003;42.756;23.130;2023-02-22T12:29:17;1.90;;;1.80;;
11887;SDS011;6003;42.756;23.130;2023-02-22T12:31:54;1.90;;;1.80;;
11887;SDS011;6003;42.756;23.130;2023-02-22T12:34:28;1.27;;;1.27;;
11887;SDS011;6003;42.756;23.130;2023-02-22T12:37:00;3.53;;;1.60;;
11887;SDS011;6003;42.756;23.130;2023-02-22T12:39:38;1.73;;;1.60;;
11887;SDS011;6003;42.756;23.130;2023-02-22T12:42:15;3.80;;;2.07;;
11887;SDS011;6003;42.756;23.130;2023-02-22T12:44:46;1.53;;;1.43;;
11887;SDS011;6003;42.756;23.130;2023-02-22T12:47:21;1.70;;;1.60;;
11887;SDS011;6003;42.756;23.130;2023-02-22T12:49:56;0.90;;;0.90;;
11887;SDS011;6003;42.756;23.130;2023-02-22T12:52:34;2.40;;;1.20;;
11887;SDS011;6003;42.756;23.130;2023-02-22T12:55:10;1.10;;;1.10;;
11887;SDS011;6003;42.756;23.130;2023-02-22T12:57:43;1.80;;;1.20;;
11887;SDS011;6003;42.756;23.130;2023-02-22T13:00:18;3.53;;;1.63;;
11887;SDS011;6003;42.756;23.130;2023-02-22T13:02:54;1.37;;;1.27;;
11887;SDS011;6003;42.756;23.130;2023-02-22T13:05:24;1.30;;;1.20;;
11887;SDS011;6003;42.756;23.130;2023-02-22T13:08:00;1.83;;;1.60;;
11887;SDS011;6003;42.756;23.130;2023-02-22T13:10:40;2.13;;;1.92;;
11887;SDS011;6003;42.756;23.130;2023-02-22T13:13:19;1.73;;;1.63;;
11887;SDS011;6003;42.756;23.130;2023-02-22T13:15:54;2.20;;;2.10;;
11887;SDS011;6003;42.756;23.130;2023-02-22T13:18:29;2.03;;;1.90;;
11887;SDS011;6003;42.756;23.130;2023-02-22T13:21:08;1.60;;;1.50;;
11887;SDS011;6003;42.756;23.130;2023-02-22T13:23:42;2.83;;;2.50;;
11887;SDS011;6003;42.756;23.130;2023-02-22T13:26:20;2.57;;;2.13;;
11887;SDS011;6003;42.756;23.130;2023-02-22T13:28:54;2.43;;;2.23;;
11887;SDS011;6003;42.756;23.130;2023-02-22T13:31:37;2.13;;;2.00;;
11887;SDS011;6003;42.756;23.130;2023-02-22T13:34:39;2.70;;;2.50;;
11887;SDS011;6003;42.756;23.130;2023-02-22T13:40:15;3.03;;;2.73;;
11887;SDS011;6003;42.756;23.130;2023-02-22T13:43:00;2.87;;;2.63;;
11887;SDS011;6003;42.756;23.130;2023-02-22T13:48:53;2.83;;;2.47;;
11887;SDS011;6003;42.756;23.130;2023-02-22T13:51:47;3.70;;;2.83;;
11887;SDS011;6003;42.756;23.130;2023-02-22T13:54:18;2.90;;;2.70;;
11887;SDS011;6003;42.756;23.130;2023-02-22T13:56:50;2.43;;;2.20;;
11887;SDS011;6003;42.756;23.130;2023-02-22T13:59:29;2.93;;;2.73;;
11887;SDS011;6003;42.756;23.130;2023-02-22T14:01:58;4.07;;;3.00;;
11887;SDS011;6003;42.756;23.130;2023-02-22T14:10:35;3.53;;;3.23;;
11887;SDS011;6003;42.756;23.130;2023-02-22T14:13:04;3.60;;;3.17;;
11887;SDS011;6003;42.756;23.130;2023-02-22T14:15:33;2.83;;;2.63;;
11887;SDS011;6003;42.756;23.130;2023-02-22T14:18:00;3.60;;;2.63;;
11887;SDS011;6003;42.756;23.130;2023-02-22T14:20:29;3.30;;;2.97;;
11887;SDS011;6003;42.756;23.130;2023-02-22T14:26:10;5.63;;;3.00;;
11887;SDS011;6003;42.756;23.130;2023-02-22T14:28:42;3.50;;;3.07;;
11887;SDS011;6003;42.756;23.130;2023-02-22T14:31:18;3.40;;;3.10;;
11887;SDS011;6003;42.756;23.130;2023-02-22T14:33:54;3.50;;;2.50;;
11887;SDS011;6003;42.756;23.130;2023-02-22T14:36:28;3.33;;;2.97;;
11887;SDS011;6003;42.756;23.130;2023-02-22T14:39:11;2.80;;;2.60;;
11887;SDS011;6003;42.756;23.130;2023-02-22T14:41:44;4.10;;;3.00;;
11887;SDS011;6003;42.756;23.130;2023-02-22T14:44:19;3.67;;;3.20;;
11887;SDS011;6003;42.756;23.130;2023-02-22T14:46:52;2.60;;;2.40;;
11887;SDS011;6003;42.756;23.130;2023-02-22T14:49:26;3.80;;;2.73;;
11887;SDS011;6003;42.756;23.130;2023-02-22T14:51:56;3.17;;;2.83;;
11887;SDS011;6003;42.756;23.130;2023-02-22T14:54:29;4.87;;;2.90;;
11887;SDS011;6003;42.756;23.130;2023-02-22T14:57:02;6.40;;;2.77;;
11887;SDS011;6003;42.756;23.130;2023-02-22T14:59:45;4.10;;;2.60;;
11887;SDS011;6003;42.756;23.130;2023-02-22T15:02:19;3.20;;;2.90;;
11887;SDS011;6003;42.756;23.130;2023-02-22T15:04:50;4.40;;;2.80;;
11887;SDS011;6003;42.756;23.130;2023-02-22T15:07:22;3.20;;;2.87;;
11887;SDS011;6003;42.756;23.130;2023-02-22T15:12:49;3.37;;;3.07;;
11887;SDS011;6003;42.756;23.130;2023-02-22T15:15:20;3.10;;;2.70;;
11887;SDS011;6003;42.756;23.130;2023-02-22T15:17:53;3.13;;;2.80;;
11887;SDS011;6003;42.756;23.130;2023-02-22T15:20:21;4.93;;;4.43;;
11887;SDS011;6003;42.756;23.130;2023-02-22T15:22:50;7.23;;;4.80;;
11887;SDS011;6003;42.756;23.130;2023-02-22T15:25:23;5.70;;;4.27;;
11887;SDS011;6003;42.756;23.130;2023-02-22T15:27:52;4.50;;;3.93;;
11887;SDS011;6003;42.756;23.130;2023-02-22T15:30:26;8.90;;;5.73;;
11887;SDS011;6003;42.756;23.130;2023-02-22T15:33:06;7.97;;;4.53;;
11887;SDS011;6003;42.756;23.130;2023-02-22T15:35:36;7.60;;;5.77;;
11887;SDS011;6003;42.756;23.130;2023-02-22T15:38:04;10.47;;;6.47;;
11887;SDS011;6003;42.756;23.130;2023-02-22T15:40:45;8.43;;;5.87;;
11887;SDS011;6003;42.756;23.130;2023-02-22T15:43:16;6.23;;;3.90;;